sensor_id;sensor_type;location;lat;lon;timestamp;temperature;humidity
20057;DHT22;10189;49.546;7.906;2024-01-06T00:02:25;1.80;99.90
20057;DHT22;10189;49.546;7.906;2024-01-06T00:04:52;1.90;99.90
20057;DHT22;10189;49.546;7.906;2024-01-06T00:07:18;1.90;99.90
20057;DHT22;10189;49.546;7.906;2024-01-06T00:09:44;1.90;99.90
20057;DHT22;10189;49.546;7.906;2024-01-06T00:12:10;1.90;99.90
20057;DHT22;10189;49.546;7.906;2024-01-06T00:14:36;1.90;99.90
20057;DHT22;10189;49.546;7.906;2024-01-06T00:17:01;1.80;99.90
20057;DHT22;10189;49.546;7.906;2024-01-06T00:19:27;1.90;99.90
20057;DHT22;10189;49.546;7.906;2024-01-06T00:21:53;1.90;99.90
20057;DHT22;10189;49.546;7.906;2024-01-06T00:24:19;1.90;99.90
20057;DHT22;10189;49.546;7.906;2024-01-06T00:26:45;2.10;99.90
20057;DHT22;10189;49.546;7.906;2024-01-06T00:29:10;2.10;99.90
20057;DHT22;10189;49.546;7.906;2024-01-06T00:31:36;2.20;99.90
20057;DHT22;10189;49.546;7.906;2024-01-06T00:34:02;2.20;99.90
20057;DHT22;10189;49.546;7.906;2024-01-06T00:36:29;2.20;99.90
20057;DHT22;10189;49.546;7.906;2024-01-06T00:38:54;2.30;99.90
20057;DHT22;10189;49.546;7.906;2024-01-06T00:41:20;2.30;99.90
20057;DHT22;10189;49.546;7.906;2024-01-06T00:43:46;2.40;99.90
20057;DHT22;10189;49.546;7.906;2024-01-06T00:46:12;2.30;99.90
20057;DHT22;10189;49.546;7.906;2024-01-06T00:48:38;2.30;99.90
20057;DHT22;10189;49.546;7.906;2024-01-06T00:51:04;2.10;99.90
20057;DHT22;10189;49.546;7.906;2024-01-06T00:53:30;2.10;99.90
20057;DHT22;10189;49.546;7.906;2024-01-06T00:55:55;2.00;99.90
20057;DHT22;10189;49.546;7.906;2024-01-06T00:58:21;2.00;99.90
20057;DHT22;10189;49.546;7.906;2024-01-06T01:00:47;1.90;99.90
20057;DHT22;10189;49.546;7.906;2024-01-06T01:03:13;1.80;99.90
20057;DHT22;10189;49.546;7.906;2024-01-06T01:05:38;1.70;99.90
20057;DHT22;10189;49.546;7.906;2024-01-06T01:08:05;1.70;99.90
20057;DHT22;10189;49.546;7.906;2024-01-06T01:10:31;1.60;99.90
20057;DHT22;10189;49.546;7.906;2024-01-06T01:12:56;1.60;99.90
20057;DHT22;10189;49.546;7.906;2024-01-06T01:15:22;1.70;99.90
20057;DHT22;10189;49.546;7.906;2024-01-06T01:17:48;1.80;99.90
20057;DHT22;10189;49.546;7.906;2024-01-06T01:20:14;1.80;99.90
20057;DHT22;10189;49.546;7.906;2024-01-06T01:22:40;1.90;99.90
20057;DHT22;10189;49.546;7.906;2024-01-06T01:25:06;1.90;99.90
20057;DHT22;10189;49.546;7.906;2024-01-06T01:27:36;2.00;99.90
20057;DHT22;10189;49.546;7.906;2024-01-06T01:30:02;2.00;99.90
20057;DHT22;10189;49.546;7.906;2024-01-06T01:32:28;2.10;99.90
20057;DHT22;10189;49.546;7.906;2024-01-06T01:34:54;2.10;99.90
20057;DHT22;10189;49.546;7.906;2024-01-06T01:37:20;2.10;99.90
20057;DHT22;10189;49.546;7.906;2024-01-06T01:39:47;2.20;99.90
20057;DHT22;10189;49.546;7.906;2024-01-06T01:42:12;2.20;99.90
20057;DHT22;10189;49.546;7.906;2024-01-06T01:44:38;2.30;99.90
20057;DHT22;10189;49.546;7.906;2024-01-06T01:47:05;2.30;99.90
20057;DHT22;10189;49.546;7.906;2024-01-06T01:49:30;2.30;99.90
20057;DHT22;10189;49.546;7.906;2024-01-06T01:51:58;2.40;99.90
20057;DHT22;10189;49.546;7.906;2024-01-06T01:54:25;2.40;99.90
20057;DHT22;10189;49.546;7.906;2024-01-06T01:56:51;2.40;99.90
20057;DHT22;10189;49.546;7.906;2024-01-06T01:59:18;2.40;99.90
20057;DHT22;10189;49.546;7.906;2024-01-06T02:01:45;2.50;99.90
20057;DHT22;10189;49.546;7.906;2024-01-06T02:04:12;2.50;99.90
20057;DHT22;10189;49.546;7.906;2024-01-06T02:06:38;2.50;99.90
20057;DHT22;10189;49.546;7.906;2024-01-06T02:09:04;2.50;99.90
20057;DHT22;10189;49.546;7.906;2024-01-06T02:11:31;2.60;99.90
20057;DHT22;10189;49.546;7.906;2024-01-06T02:13:56;2.60;99.90
20057;DHT22;10189;49.546;7.906;2024-01-06T02:16:22;2.60;99.90
20057;DHT22;10189;49.546;7.906;2024-01-06T02:18:48;2.60;99.90
20057;DHT22;10189;49.546;7.906;2024-01-06T02:21:15;2.70;99.90
20057;DHT22;10189;49.546;7.906;2024-01-06T02:23:42;2.70;99.90
20057;DHT22;10189;49.546;7.906;2024-01-06T02:26:11;2.70;99.90
20057;DHT22;10189;49.546;7.906;2024-01-06T02:28:38;2.70;99.90
20057;DHT22;10189;49.546;7.906;2024-01-06T02:31:04;2.70;99.90
20057;DHT22;10189;49.546;7.906;2024-01-06T02:33:30;2.80;99.90
20057;DHT22;10189;49.546;7.906;2024-01-06T02:35:56;2.70;99.90
20057;DHT22;10189;49.546;7.906;2024-01-06T02:38:21;2.70;99.90
20057;DHT22;10189;49.546;7.906;2024-01-06T02:40:47;2.70;99.90
20057;DHT22;10189;49.546;7.906;2024-01-06T02:43:13;2.70;99.90
20057;DHT22;10189;49.546;7.906;2024-01-06T02:45:39;2.70;99.90
20057;DHT22;10189;49.546;7.906;2024-01-06T02:48:05;2.80;99.90
20057;DHT22;10189;49.546;7.906;2024-01-06T02:50:31;2.80;99.90
20057;DHT22;10189;49.546;7.906;2024-01-06T02:52:57;2.80;99.90
20057;DHT22;10189;49.546;7.906;2024-01-06T02:55:23;2.90;99.90
20057;DHT22;10189;49.546;7.906;2024-01-06T02:57:48;2.90;99.90
20057;DHT22;10189;49.546;7.906;2024-01-06T03:00:15;2.90;99.90
20057;DHT22;10189;49.546;7.906;2024-01-06T03:02:41;2.80;99.90
20057;DHT22;10189;49.546;7.906;2024-01-06T03:05:09;2.90;99.90
20057;DHT22;10189;49.546;7.906;2024-01-06T03:07:35;2.90;99.90
20057;DHT22;10189;49.546;7.906;2024-01-06T03:10:01;2.80;99.90
20057;DHT22;10189;49.546;7.906;2024-01-06T03:12:28;2.70;99.90
20057;DHT22;10189;49.546;7.906;2024-01-06T03:14:53;2.80;99.90
20057;DHT22;10189;49.546;7.906;2024-01-06T03:17:19;2.80;99.90
20057;DHT22;10189;49.546;7.906;2024-01-06T03:19:45;2.80;99.90
20057;DHT22;10189;49.546;7.906;2024-01-06T03:22:11;2.80;99.90
20057;DHT22;10189;49.546;7.906;2024-01-06T03:24:37;2.90;99.90
20057;DHT22;10189;49.546;7.906;2024-01-06T03:27:03;2.90;99.90
20057;DHT22;10189;49.546;7.906;2024-01-06T03:29:28;2.80;99.90
20057;DHT22;10189;49.546;7.906;2024-01-06T03:31:54;2.80;99.90
20057;DHT22;10189;49.546;7.906;2024-01-06T03:34:20;2.80;99.90
20057;DHT22;10189;49.546;7.906;2024-01-06T03:36:46;2.80;99.90
20057;DHT22;10189;49.546;7.906;2024-01-06T03:39:12;2.80;99.90
20057;DHT22;10189;49.546;7.906;2024-01-06T03:41:39;2.80;99.90
20057;DHT22;10189;49.546;7.906;2024-01-06T03:44:05;2.80;99.90
20057;DHT22;10189;49.546;7.906;2024-01-06T03:46:32;2.80;99.90
20057;DHT22;10189;49.546;7.906;2024-01-06T03:48:59;2.80;99.90
20057;DHT22;10189;49.546;7.906;2024-01-06T03:51:25;2.80;99.90
20057;DHT22;10189;49.546;7.906;2024-01-06T03:53:50;2.70;99.90
20057;DHT22;10189;49.546;7.906;2024-01-06T03:56:16;2.80;99.90
20057;DHT22;10189;49.546;7.906;2024-01-06T03:58:42;2.80;99.90
20057;DHT22;10189;49.546;7.906;2024-01-06T04:01:08;2.80;99.90
20057;DHT22;10189;49.546;7.906;2024-01-06T04:03:34;2.80;99.90
20057;DHT22;10189;49.546;7.906;2024-01-06T04:06:00;2.80;99.90
20057;DHT22;10189;49.546;7.906;2024-01-06T04:08:26;2.80;99.90
20057;DHT22;10189;49.546;7.906;2024-01-06T04:10:52;2.90;99.90
20057;DHT22;10189;49.546;7.906;2024-01-06T04:13:18;2.90;99.90
20057;DHT22;10189;49.546;7.906;2024-01-06T04:15:43;2.80;99.90
20057;DHT22;10189;49.546;7.906;2024-01-06T04:18:09;2.90;99.90
20057;DHT22;10189;49.546;7.906;2024-01-06T04:20:35;2.90;99.90
20057;DHT22;10189;49.546;7.906;2024-01-06T04:23:02;2.90;99.90
20057;DHT22;10189;49.546;7.906;2024-01-06T04:25:28;2.90;99.90
20057;DHT22;10189;49.546;7.906;2024-01-06T04:27:54;2.90;99.90
20057;DHT22;10189;49.546;7.906;2024-01-06T04:30:19;2.90;99.90
20057;DHT22;10189;49.546;7.906;2024-01-06T04:32:46;2.90;99.90
20057;DHT22;10189;49.546;7.906;2024-01-06T04:35:14;2.90;99.90
20057;DHT22;10189;49.546;7.906;2024-01-06T04:37:40;2.90;99.90
20057;DHT22;10189;49.546;7.906;2024-01-06T04:40:06;2.80;99.90
20057;DHT22;10189;49.546;7.906;2024-01-06T04:42:33;2.80;99.90
20057;DHT22;10189;49.546;7.906;2024-01-06T04:44:59;2.80;99.90
20057;DHT22;10189;49.546;7.906;2024-01-06T04:47:25;2.90;99.90
20057;DHT22;10189;49.546;7.906;2024-01-06T04:49:52;2.90;99.90
20057;DHT22;10189;49.546;7.906;2024-01-06T04:52:18;2.90;99.90
20057;DHT22;10189;49.546;7.906;2024-01-06T04:54:43;3.00;99.90
20057;DHT22;10189;49.546;7.906;2024-01-06T04:57:09;2.90;99.90
20057;DHT22;10189;49.546;7.906;2024-01-06T04:59:35;2.90;99.90
20057;DHT22;10189;49.546;7.906;2024-01-06T05:02:01;2.90;99.90
20057;DHT22;10189;49.546;7.906;2024-01-06T05:04:27;2.90;99.90
20057;DHT22;10189;49.546;7.906;2024-01-06T05:06:54;2.90;99.90
20057;DHT22;10189;49.546;7.906;2024-01-06T05:09:20;2.90;99.90
20057;DHT22;10189;49.546;7.906;2024-01-06T05:11:46;2.90;99.90
20057;DHT22;10189;49.546;7.906;2024-01-06T05:14:12;2.90;99.90
20057;DHT22;10189;49.546;7.906;2024-01-06T05:16:38;2.90;99.90
20057;DHT22;10189;49.546;7.906;2024-01-06T05:19:03;2.90;99.90
20057;DHT22;10189;49.546;7.906;2024-01-06T05:21:30;2.90;99.90
20057;DHT22;10189;49.546;7.906;2024-01-06T05:23:56;2.90;99.90
20057;DHT22;10189;49.546;7.906;2024-01-06T05:26:22;2.90;99.90
20057;DHT22;10189;49.546;7.906;2024-01-06T05:28:48;2.90;99.90
20057;DHT22;10189;49.546;7.906;2024-01-06T05:31:14;2.90;99.90
20057;DHT22;10189;49.546;7.906;2024-01-06T05:33:40;2.90;99.90
20057;DHT22;10189;49.546;7.906;2024-01-06T05:36:06;2.90;99.90
20057;DHT22;10189;49.546;7.906;2024-01-06T05:38:32;2.90;99.90
20057;DHT22;10189;49.546;7.906;2024-01-06T05:40:58;2.90;99.90
20057;DHT22;10189;49.546;7.906;2024-01-06T05:43:24;2.90;99.90
20057;DHT22;10189;49.546;7.906;2024-01-06T05:45:50;2.90;99.90
20057;DHT22;10189;49.546;7.906;2024-01-06T05:48:16;2.90;99.90
20057;DHT22;10189;49.546;7.906;2024-01-06T05:50:42;3.00;99.90
20057;DHT22;10189;49.546;7.906;2024-01-06T05:53:08;2.90;99.90
20057;DHT22;10189;49.546;7.906;2024-01-06T05:55:36;2.90;99.90
20057;DHT22;10189;49.546;7.906;2024-01-06T05:58:02;2.90;99.90
20057;DHT22;10189;49.546;7.906;2024-01-06T06:00:28;2.90;99.90
20057;DHT22;10189;49.546;7.906;2024-01-06T06:02:57;2.90;99.90
20057;DHT22;10189;49.546;7.906;2024-01-06T06:05:23;3.00;99.90
20057;DHT22;10189;49.546;7.906;2024-01-06T06:07:49;3.00;99.90
20057;DHT22;10189;49.546;7.906;2024-01-06T06:10:15;2.90;99.90
20057;DHT22;10189;49.546;7.906;2024-01-06T06:12:47;2.90;99.90
20057;DHT22;10189;49.546;7.906;2024-01-06T06:15:13;2.90;99.90
20057;DHT22;10189;49.546;7.906;2024-01-06T06:17:39;2.90;99.90
20057;DHT22;10189;49.546;7.906;2024-01-06T06:20:05;2.90;99.90
20057;DHT22;10189;49.546;7.906;2024-01-06T06:22:32;2.90;99.90
20057;DHT22;10189;49.546;7.906;2024-01-06T06:24:59;2.90;99.90
20057;DHT22;10189;49.546;7.906;2024-01-06T06:27:25;2.90;99.90
20057;DHT22;10189;49.546;7.906;2024-01-06T06:29:52;2.80;99.90
20057;DHT22;10189;49.546;7.906;2024-01-06T06:32:19;2.80;99.90
20057;DHT22;10189;49.546;7.906;2024-01-06T06:34:45;2.90;99.90
20057;DHT22;10189;49.546;7.906;2024-01-06T06:37:11;2.90;99.90
20057;DHT22;10189;49.546;7.906;2024-01-06T06:39:37;2.90;99.90
20057;DHT22;10189;49.546;7.906;2024-01-06T06:42:03;2.90;99.90
20057;DHT22;10189;49.546;7.906;2024-01-06T06:44:30;2.90;99.90
20057;DHT22;10189;49.546;7.906;2024-01-06T06:46:56;2.90;99.90
20057;DHT22;10189;49.546;7.906;2024-01-06T06:49:22;2.90;99.90
20057;DHT22;10189;49.546;7.906;2024-01-06T06:51:48;3.00;99.90
20057;DHT22;10189;49.546;7.906;2024-01-06T06:54:15;2.90;99.90
20057;DHT22;10189;49.546;7.906;2024-01-06T06:56:44;2.90;99.90
20057;DHT22;10189;49.546;7.906;2024-01-06T06:59:10;3.00;99.90
20057;DHT22;10189;49.546;7.906;2024-01-06T07:01:37;3.00;99.90
20057;DHT22;10189;49.546;7.906;2024-01-06T07:04:03;3.00;99.90
20057;DHT22;10189;49.546;7.906;2024-01-06T07:06:29;3.00;99.90
20057;DHT22;10189;49.546;7.906;2024-01-06T07:08:56;3.00;99.90
20057;DHT22;10189;49.546;7.906;2024-01-06T07:11:23;3.00;99.90
20057;DHT22;10189;49.546;7.906;2024-01-06T07:13:49;3.00;99.90
20057;DHT22;10189;49.546;7.906;2024-01-06T07:16:15;3.00;99.90
20057;DHT22;10189;49.546;7.906;2024-01-06T07:18:41;3.00;99.90
20057;DHT22;10189;49.546;7.906;2024-01-06T07:21:07;3.00;99.90
20057;DHT22;10189;49.546;7.906;2024-01-06T07:23:33;3.00;99.90
20057;DHT22;10189;49.546;7.906;2024-01-06T07:25:59;3.00;99.90
20057;DHT22;10189;49.546;7.906;2024-01-06T07:28:26;3.00;99.90
20057;DHT22;10189;49.546;7.906;2024-01-06T07:30:52;3.00;99.90
20057;DHT22;10189;49.546;7.906;2024-01-06T07:33:18;3.00;99.90
20057;DHT22;10189;49.546;7.906;2024-01-06T07:35:44;2.90;99.90
20057;DHT22;10189;49.546;7.906;2024-01-06T07:38:12;3.00;99.90
20057;DHT22;10189;49.546;7.906;2024-01-06T07:40:38;2.90;99.90
20057;DHT22;10189;49.546;7.906;2024-01-06T07:43:05;3.00;99.90
20057;DHT22;10189;49.546;7.906;2024-01-06T07:45:31;3.00;99.90
20057;DHT22;10189;49.546;7.906;2024-01-06T07:48:01;3.00;99.90
20057;DHT22;10189;49.546;7.906;2024-01-06T07:50:27;3.00;99.90
20057;DHT22;10189;49.546;7.906;2024-01-06T07:52:53;3.00;99.90
20057;DHT22;10189;49.546;7.906;2024-01-06T07:55:19;3.10;99.90
20057;DHT22;10189;49.546;7.906;2024-01-06T07:57:46;3.10;99.90
20057;DHT22;10189;49.546;7.906;2024-01-06T08:00:12;3.00;99.90
20057;DHT22;10189;49.546;7.906;2024-01-06T08:02:42;3.00;99.90
20057;DHT22;10189;49.546;7.906;2024-01-06T08:05:08;3.00;99.90
20057;DHT22;10189;49.546;7.906;2024-01-06T08:07:35;3.00;99.90
20057;DHT22;10189;49.546;7.906;2024-01-06T08:10:01;3.00;99.90
20057;DHT22;10189;49.546;7.906;2024-01-06T08:12:30;3.10;99.90
20057;DHT22;10189;49.546;7.906;2024-01-06T08:14:56;3.10;99.90
20057;DHT22;10189;49.546;7.906;2024-01-06T08:17:22;3.20;99.90
20057;DHT22;10189;49.546;7.906;2024-01-06T08:19:48;3.20;99.90
20057;DHT22;10189;49.546;7.906;2024-01-06T08:22:14;3.30;99.90
20057;DHT22;10189;49.546;7.906;2024-01-06T08:24:40;3.30;99.90
20057;DHT22;10189;49.546;7.906;2024-01-06T08:27:06;3.30;99.90
20057;DHT22;10189;49.546;7.906;2024-01-06T08:29:32;3.30;99.90
20057;DHT22;10189;49.546;7.906;2024-01-06T08:31:57;3.30;99.90
20057;DHT22;10189;49.546;7.906;2024-01-06T08:34:23;3.40;99.90
20057;DHT22;10189;49.546;7.906;2024-01-06T08:36:49;3.40;99.90
20057;DHT22;10189;49.546;7.906;2024-01-06T08:39:16;3.50;99.90
20057;DHT22;10189;49.546;7.906;2024-01-06T08:41:42;3.50;99.90
20057;DHT22;10189;49.546;7.906;2024-01-06T08:44:08;3.40;99.90
20057;DHT22;10189;49.546;7.906;2024-01-06T08:46:34;3.50;99.90
20057;DHT22;10189;49.546;7.906;2024-01-06T08:49:00;3.50;99.90
20057;DHT22;10189;49.546;7.906;2024-01-06T08:51:26;3.50;99.90
20057;DHT22;10189;49.546;7.906;2024-01-06T08:53:52;3.50;99.90
20057;DHT22;10189;49.546;7.906;2024-01-06T08:56:18;3.50;99.90
20057;DHT22;10189;49.546;7.906;2024-01-06T08:58:44;3.50;99.90
20057;DHT22;10189;49.546;7.906;2024-01-06T09:01:10;3.60;99.90
20057;DHT22;10189;49.546;7.906;2024-01-06T09:03:36;3.70;99.90
20057;DHT22;10189;49.546;7.906;2024-01-06T09:06:02;3.80;99.90
20057;DHT22;10189;49.546;7.906;2024-01-06T09:08:29;3.80;99.90
20057;DHT22;10189;49.546;7.906;2024-01-06T09:10:55;3.70;99.90
20057;DHT22;10189;49.546;7.906;2024-01-06T09:13:23;3.70;99.90
20057;DHT22;10189;49.546;7.906;2024-01-06T09:15:50;3.80;99.90
20057;DHT22;10189;49.546;7.906;2024-01-06T09:18:16;3.80;99.90
20057;DHT22;10189;49.546;7.906;2024-01-06T09:20:42;3.80;99.90
20057;DHT22;10189;49.546;7.906;2024-01-06T09:23:08;3.80;99.90
20057;DHT22;10189;49.546;7.906;2024-01-06T09:25:36;3.90;99.90
20057;DHT22;10189;49.546;7.906;2024-01-06T09:28:02;3.90;99.90
20057;DHT22;10189;49.546;7.906;2024-01-06T09:30:28;4.00;99.90
20057;DHT22;10189;49.546;7.906;2024-01-06T09:32:54;4.00;99.90
20057;DHT22;10189;49.546;7.906;2024-01-06T09:35:20;4.00;99.90
20057;DHT22;10189;49.546;7.906;2024-01-06T09:37:46;4.00;99.90
20057;DHT22;10189;49.546;7.906;2024-01-06T09:40:12;4.00;99.90
20057;DHT22;10189;49.546;7.906;2024-01-06T09:42:39;4.20;99.90
20057;DHT22;10189;49.546;7.906;2024-01-06T09:45:06;4.20;99.90
20057;DHT22;10189;49.546;7.906;2024-01-06T09:47:34;4.30;99.90
20057;DHT22;10189;49.546;7.906;2024-01-06T09:50:03;4.40;99.90
20057;DHT22;10189;49.546;7.906;2024-01-06T09:52:40;4.40;99.90
20057;DHT22;10189;49.546;7.906;2024-01-06T09:55:11;4.30;99.90
20057;DHT22;10189;49.546;7.906;2024-01-06T09:57:38;4.40;99.90
20057;DHT22;10189;49.546;7.906;2024-01-06T10:00:05;4.40;99.90
20057;DHT22;10189;49.546;7.906;2024-01-06T10:02:37;4.30;99.90
20057;DHT22;10189;49.546;7.906;2024-01-06T10:05:03;4.30;99.90
20057;DHT22;10189;49.546;7.906;2024-01-06T10:07:29;4.30;99.90
20057;DHT22;10189;49.546;7.906;2024-01-06T10:09:55;4.40;99.90
20057;DHT22;10189;49.546;7.906;2024-01-06T10:12:25;4.40;99.90
20057;DHT22;10189;49.546;7.906;2024-01-06T10:14:52;4.50;99.90
20057;DHT22;10189;49.546;7.906;2024-01-06T10:17:18;4.50;99.90
20057;DHT22;10189;49.546;7.906;2024-01-06T10:19:48;4.40;99.90
20057;DHT22;10189;49.546;7.906;2024-01-06T10:22:14;4.50;99.90
20057;DHT22;10189;49.546;7.906;2024-01-06T10:24:40;4.50;99.90
20057;DHT22;10189;49.546;7.906;2024-01-06T10:27:06;4.60;99.90
20057;DHT22;10189;49.546;7.906;2024-01-06T10:29:34;4.70;99.90
20057;DHT22;10189;49.546;7.906;2024-01-06T10:32:00;4.70;99.90
20057;DHT22;10189;49.546;7.906;2024-01-06T10:34:27;4.70;99.90
20057;DHT22;10189;49.546;7.906;2024-01-06T10:36:54;4.70;99.90
20057;DHT22;10189;49.546;7.906;2024-01-06T10:39:21;4.70;99.90
20057;DHT22;10189;49.546;7.906;2024-01-06T10:41:49;4.80;99.90
20057;DHT22;10189;49.546;7.906;2024-01-06T10:44:15;4.90;99.90
20057;DHT22;10189;49.546;7.906;2024-01-06T10:46:41;4.90;99.90
20057;DHT22;10189;49.546;7.906;2024-01-06T10:49:11;4.80;99.90
20057;DHT22;10189;49.546;7.906;2024-01-06T10:51:38;4.90;99.90
20057;DHT22;10189;49.546;7.906;2024-01-06T10:54:05;5.00;99.90
20057;DHT22;10189;49.546;7.906;2024-01-06T10:56:36;5.00;99.90
20057;DHT22;10189;49.546;7.906;2024-01-06T10:59:04;5.00;99.90
20057;DHT22;10189;49.546;7.906;2024-01-06T11:01:30;5.00;99.90
20057;DHT22;10189;49.546;7.906;2024-01-06T11:03:57;5.10;99.90
20057;DHT22;10189;49.546;7.906;2024-01-06T11:06:24;5.10;99.90
20057;DHT22;10189;49.546;7.906;2024-01-06T11:09:02;5.30;99.90
20057;DHT22;10189;49.546;7.906;2024-01-06T11:11:35;5.40;99.90
20057;DHT22;10189;49.546;7.906;2024-01-06T11:14:22;5.50;99.90
20057;DHT22;10189;49.546;7.906;2024-01-06T11:16:50;5.80;99.90
20057;DHT22;10189;49.546;7.906;2024-01-06T11:22:27;6.10;99.90
20057;DHT22;10189;49.546;7.906;2024-01-06T11:24:56;6.20;99.90
20057;DHT22;10189;49.546;7.906;2024-01-06T11:27:30;6.20;99.90
20057;DHT22;10189;49.546;7.906;2024-01-06T11:30:00;6.30;99.90
20057;DHT22;10189;49.546;7.906;2024-01-06T11:32:34;6.20;99.90
20057;DHT22;10189;49.546;7.906;2024-01-06T11:35:15;6.40;99.90
20057;DHT22;10189;49.546;7.906;2024-01-06T11:42:48;6.60;99.90
20057;DHT22;10189;49.546;7.906;2024-01-06T11:45:21;6.60;99.90
20057;DHT22;10189;49.546;7.906;2024-01-06T11:47:56;6.30;99.90
20057;DHT22;10189;49.546;7.906;2024-01-06T11:50:40;6.30;99.90
20057;DHT22;10189;49.546;7.906;2024-01-06T11:53:07;6.10;99.90
20057;DHT22;10189;49.546;7.906;2024-01-06T11:55:35;6.10;99.90
20057;DHT22;10189;49.546;7.906;2024-01-06T11:58:04;6.20;99.90
20057;DHT22;10189;49.546;7.906;2024-01-06T12:00:34;6.20;99.90
20057;DHT22;10189;49.546;7.906;2024-01-06T12:03:06;6.20;99.90
20057;DHT22;10189;49.546;7.906;2024-01-06T12:05:32;6.20;99.90
20057;DHT22;10189;49.546;7.906;2024-01-06T12:08:02;6.30;99.90
20057;DHT22;10189;49.546;7.906;2024-01-06T12:10:33;6.30;99.90
20057;DHT22;10189;49.546;7.906;2024-01-06T12:13:04;6.20;99.90
20057;DHT22;10189;49.546;7.906;2024-01-06T12:15:32;6.10;99.90
20057;DHT22;10189;49.546;7.906;2024-01-06T12:17:58;6.10;99.90
20057;DHT22;10189;49.546;7.906;2024-01-06T12:20:27;6.00;99.90
20057;DHT22;10189;49.546;7.906;2024-01-06T12:22:54;6.00;99.90
20057;DHT22;10189;49.546;7.906;2024-01-06T12:25:22;6.10;99.90
20057;DHT22;10189;49.546;7.906;2024-01-06T12:27:49;6.20;99.90
20057;DHT22;10189;49.546;7.906;2024-01-06T12:30:19;6.20;99.90
20057;DHT22;10189;49.546;7.906;2024-01-06T12:32:49;6.20;99.90
20057;DHT22;10189;49.546;7.906;2024-01-06T12:35:17;6.10;99.90
20057;DHT22;10189;49.546;7.906;2024-01-06T12:37:44;6.10;99.90
20057;DHT22;10189;49.546;7.906;2024-01-06T12:40:12;6.10;99.90
20057;DHT22;10189;49.546;7.906;2024-01-06T12:42:38;6.10;99.90
20057;DHT22;10189;49.546;7.906;2024-01-06T12:45:06;6.10;99.90
20057;DHT22;10189;49.546;7.906;2024-01-06T12:47:33;6.10;99.90
20057;DHT22;10189;49.546;7.906;2024-01-06T12:49:59;6.00;99.90
20057;DHT22;10189;49.546;7.906;2024-01-06T12:52:25;6.00;99.90
20057;DHT22;10189;49.546;7.906;2024-01-06T12:54:51;6.00;99.90
20057;DHT22;10189;49.546;7.906;2024-01-06T12:57:18;6.00;99.90
20057;DHT22;10189;49.546;7.906;2024-01-06T12:59:44;6.00;99.90
20057;DHT22;10189;49.546;7.906;2024-01-06T13:02:10;6.00;99.90
20057;DHT22;10189;49.546;7.906;2024-01-06T13:04:35;6.10;99.90
20057;DHT22;10189;49.546;7.906;2024-01-06T13:07:01;6.20;99.90
20057;DHT22;10189;49.546;7.906;2024-01-06T13:09:28;6.20;99.90
20057;DHT22;10189;49.546;7.906;2024-01-06T13:11:54;6.20;99.90
20057;DHT22;10189;49.546;7.906;2024-01-06T13:14:26;6.20;99.90
20057;DHT22;10189;49.546;7.906;2024-01-06T13:16:52;6.30;99.90
20057;DHT22;10189;49.546;7.906;2024-01-06T13:19:18;6.30;99.90
20057;DHT22;10189;49.546;7.906;2024-01-06T13:21:45;6.40;99.90
20057;DHT22;10189;49.546;7.906;2024-01-06T13:24:11;6.30;99.90
20057;DHT22;10189;49.546;7.906;2024-01-06T13:26:37;6.20;99.90
20057;DHT22;10189;49.546;7.906;2024-01-06T13:29:03;6.30;99.90
20057;DHT22;10189;49.546;7.906;2024-01-06T13:31:30;6.20;99.90
20057;DHT22;10189;49.546;7.906;2024-01-06T13:33:57;6.20;99.90
20057;DHT22;10189;49.546;7.906;2024-01-06T13:36:22;6.20;99.90
20057;DHT22;10189;49.546;7.906;2024-01-06T13:38:48;6.10;99.90
20057;DHT22;10189;49.546;7.906;2024-01-06T13:41:15;6.00;99.90
20057;DHT22;10189;49.546;7.906;2024-01-06T13:43:41;5.90;99.90
20057;DHT22;10189;49.546;7.906;2024-01-06T13:46:07;5.80;99.90
20057;DHT22;10189;49.546;7.906;2024-01-06T13:48:33;5.80;99.90
20057;DHT22;10189;49.546;7.906;2024-01-06T13:50:59;5.70;99.90
20057;DHT22;10189;49.546;7.906;2024-01-06T13:53:25;5.70;99.90
20057;DHT22;10189;49.546;7.906;2024-01-06T13:55:51;5.60;99.90
20057;DHT22;10189;49.546;7.906;2024-01-06T13:58:18;5.50;99.90
20057;DHT22;10189;49.546;7.906;2024-01-06T14:00:45;5.50;99.90
20057;DHT22;10189;49.546;7.906;2024-01-06T14:03:11;5.50;99.90
20057;DHT22;10189;49.546;7.906;2024-01-06T14:05:37;5.50;99.90
20057;DHT22;10189;49.546;7.906;2024-01-06T14:08:06;5.50;99.90
20057;DHT22;10189;49.546;7.906;2024-01-06T14:10:32;5.50;99.90
20057;DHT22;10189;49.546;7.906;2024-01-06T14:12:58;5.50;99.90
20057;DHT22;10189;49.546;7.906;2024-01-06T14:15:24;5.50;99.90
20057;DHT22;10189;49.546;7.906;2024-01-06T14:17:52;5.40;99.90
20057;DHT22;10189;49.546;7.906;2024-01-06T14:20:19;5.50;99.90
20057;DHT22;10189;49.546;7.906;2024-01-06T14:22:46;5.60;99.90
20057;DHT22;10189;49.546;7.906;2024-01-06T14:25:13;5.50;99.90
20057;DHT22;10189;49.546;7.906;2024-01-06T14:27:41;5.40;99.90
20057;DHT22;10189;49.546;7.906;2024-01-06T14:30:07;5.40;99.90
20057;DHT22;10189;49.546;7.906;2024-01-06T14:32:36;5.30;99.90
20057;DHT22;10189;49.546;7.906;2024-01-06T14:35:05;5.30;99.90
20057;DHT22;10189;49.546;7.906;2024-01-06T14:37:33;5.30;99.90
20057;DHT22;10189;49.546;7.906;2024-01-06T14:39:59;5.30;99.90
20057;DHT22;10189;49.546;7.906;2024-01-06T14:42:32;5.20;99.90
20057;DHT22;10189;49.546;7.906;2024-01-06T14:44:59;5.20;99.90
20057;DHT22;10189;49.546;7.906;2024-01-06T14:47:25;5.10;99.90
20057;DHT22;10189;49.546;7.906;2024-01-06T14:49:51;5.10;99.90
20057;DHT22;10189;49.546;7.906;2024-01-06T14:52:18;5.10;99.90
20057;DHT22;10189;49.546;7.906;2024-01-06T14:54:44;5.10;99.90
20057;DHT22;10189;49.546;7.906;2024-01-06T14:57:10;5.20;99.90
20057;DHT22;10189;49.546;7.906;2024-01-06T14:59:37;5.20;99.90
20057;DHT22;10189;49.546;7.906;2024-01-06T15:02:03;5.10;99.90
20057;DHT22;10189;49.546;7.906;2024-01-06T15:04:29;5.10;99.90
20057;DHT22;10189;49.546;7.906;2024-01-06T15:06:55;5.10;99.90
20057;DHT22;10189;49.546;7.906;2024-01-06T15:09:21;5.10;99.90
20057;DHT22;10189;49.546;7.906;2024-01-06T15:11:49;5.10;99.90
20057;DHT22;10189;49.546;7.906;2024-01-06T15:14:15;5.10;99.90
20057;DHT22;10189;49.546;7.906;2024-01-06T15:16:41;5.10;99.90
20057;DHT22;10189;49.546;7.906;2024-01-06T15:19:07;5.10;99.90
20057;DHT22;10189;49.546;7.906;2024-01-06T15:21:33;5.10;99.90
20057;DHT22;10189;49.546;7.906;2024-01-06T15:24:02;5.10;99.90
20057;DHT22;10189;49.546;7.906;2024-01-06T15:26:28;5.10;99.90
20057;DHT22;10189;49.546;7.906;2024-01-06T15:28:54;5.10;99.90
20057;DHT22;10189;49.546;7.906;2024-01-06T15:31:21;5.20;99.90
20057;DHT22;10189;49.546;7.906;2024-01-06T15:33:47;5.20;99.90
20057;DHT22;10189;49.546;7.906;2024-01-06T15:36:14;5.10;99.90
20057;DHT22;10189;49.546;7.906;2024-01-06T15:38:42;5.10;99.90
20057;DHT22;10189;49.546;7.906;2024-01-06T15:41:09;5.00;99.90
20057;DHT22;10189;49.546;7.906;2024-01-06T15:43:35;5.00;99.90
20057;DHT22;10189;49.546;7.906;2024-01-06T15:46:03;5.00;99.90
20057;DHT22;10189;49.546;7.906;2024-01-06T15:48:29;4.70;99.90
20057;DHT22;10189;49.546;7.906;2024-01-06T15:50:57;4.40;99.90